createdAt,value
2022-08-05T00:00:18.501Z,24.90
2022-08-05T00:02:50.794Z,24.70
2022-08-05T00:06:01.876Z,24.70
2022-08-05T00:08:34.199Z,24.40
2022-08-05T00:11:00.550Z,24.00
2022-08-05T00:13:38.906Z,23.80
2022-08-05T00:16:10.864Z,23.70
2022-08-05T00:18:45.554Z,23.50
2022-08-05T00:21:14.976Z,23.40
2022-08-05T00:23:46.859Z,23.20
2022-08-05T00:26:32.362Z,23.40
2022-08-05T00:28:59.996Z,23.20
2022-08-05T00:31:41.456Z,23.00
2022-08-05T00:34:54.675Z,22.90
2022-08-05T00:37:12.760Z,22.90
2022-08-05T00:39:58.794Z,23.00
2022-08-05T00:42:35.289Z,23.30
2022-08-05T00:45:05.580Z,23.50
2022-08-05T00:47:57.001Z,23.60
2022-08-05T00:50:25.438Z,23.50
2022-08-05T00:52:55.254Z,23.00
2022-08-05T00:55:42.290Z,22.70
2022-08-05T00:58:12.702Z,22.70
2022-08-05T01:00:42.229Z,22.70
2022-08-05T01:03:12.630Z,22.60
2022-08-05T01:05:54.544Z,22.70
2022-08-05T01:08:40.661Z,22.80
2022-08-05T01:11:36.800Z,22.70
2022-08-05T01:14:27.220Z,22.70
2022-08-05T01:17:13.754Z,22.70
2022-08-05T01:20:25.731Z,22.70
2022-08-05T01:22:58.079Z,22.60
2022-08-05T01:26:01.005Z,22.60
2022-08-05T01:28:35.334Z,22.60
2022-08-05T01:31:12.879Z,22.60
2022-08-05T01:33:49.145Z,22.60
2022-08-05T01:36:27.983Z,22.40
2022-08-05T01:39:01.141Z,22.40
2022-08-05T01:41:32.569Z,22.40
2022-08-05T01:44:02.100Z,22.40
2022-08-05T01:46:42.511Z,22.40
2022-08-05T01:49:23.675Z,22.50
2022-08-05T01:51:58.249Z,22.50
2022-08-05T01:54:45.784Z,22.60
2022-08-05T01:58:10.035Z,22.60
2022-08-05T02:00:11.968Z,22.70
2022-08-05T02:02:54.387Z,22.80
2022-08-05T02:05:30.155Z,22.80
2022-08-05T02:08:02.114Z,22.80
2022-08-05T02:10:36.521Z,22.70
2022-08-05T02:13:27.764Z,22.60
2022-08-05T02:16:30.286Z,22.60
2022-08-05T02:19:17.704Z,22.70
2022-08-05T02:22:04.688Z,22.80
2022-08-05T02:24:38.937Z,22.80
2022-08-05T02:27:11.083Z,22.80
2022-08-05T02:29:58.972Z,22.90
2022-08-05T02:32:31.854Z,22.90
2022-08-05T02:35:13.685Z,23.00
2022-08-05T02:37:47.598Z,23.00
2022-08-05T02:40:21.937Z,23.00
2022-08-05T02:42:54.210Z,23.00
2022-08-05T02:45:25.210Z,23.10
2022-08-05T02:48:07.702Z,23.10
2022-08-05T02:50:47.039Z,23.20
2022-08-05T02:53:19.423Z,23.10
2022-08-05T02:55:54.420Z,23.10
2022-08-05T02:58:26.701Z,23.10
2022-08-05T03:00:57.043Z,23.30
2022-08-05T03:03:26.501Z,23.30
2022-08-05T03:06:56.160Z,23.30
2022-08-05T03:08:43.174Z,22.90
2022-08-05T03:11:55.323Z,22.80
2022-08-05T03:14:09.386Z,22.80
2022-08-05T03:16:42.320Z,22.90
2022-08-05T03:19:33.015Z,23.00
2022-08-05T03:22:02.346Z,23.10
2022-08-05T03:24:33.610Z,23.10
2022-08-05T03:27:02.827Z,23.20
2022-08-05T03:29:44.442Z,23.20
2022-08-05T03:32:31.007Z,23.10
2022-08-05T03:34:59.857Z,23.10
2022-08-05T03:37:30.690Z,23.10
2022-08-05T03:40:12.010Z,23.00
2022-08-05T03:42:51.655Z,23.00
2022-08-05T03:45:23.086Z,23.00
2022-08-05T03:47:56.804Z,23.00
2022-08-05T03:50:33.653Z,23.00
2022-08-05T03:55:53.358Z,23.10
2022-08-05T03:56:11.461Z,23.10
2022-08-05T03:58:51.396Z,23.10
2022-08-05T04:01:21.150Z,23.10
2022-08-05T04:04:09.019Z,23.00
2022-08-05T04:06:38.609Z,23.00
2022-08-05T04:09:25.942Z,22.90
2022-08-05T04:11:56.591Z,22.90
2022-08-05T04:14:30.296Z,22.90
2022-08-05T04:17:02.955Z,22.80
2022-08-05T04:19:31.161Z,22.90
2022-08-05T04:22:08.179Z,23.00
2022-08-05T04:24:52.682Z,23.10
2022-08-05T04:27:33.185Z,23.20
2022-08-05T04:30:09.562Z,23.30
2022-08-05T04:32:37.765Z,23.30
2022-08-05T04:35:07.463Z,23.40
2022-08-05T04:38:01.143Z,23.50
2022-08-05T04:40:35.398Z,23.50
2022-08-05T04:43:06.288Z,23.50
2022-08-05T04:45:49.008Z,23.50
2022-08-05T04:48:27.481Z,23.50
2022-08-05T04:51:03.593Z,23.60
2022-08-05T04:53:39.791Z,23.70
2022-08-05T04:56:33.365Z,23.70
2022-08-05T04:58:56.508Z,23.70
2022-08-05T05:02:06.075Z,23.40
2022-08-05T05:04:12.114Z,23.20
2022-08-05T05:06:49.299Z,23.30
2022-08-05T05:09:20.291Z,23.40
2022-08-05T05:11:54.065Z,23.40
2022-08-05T05:14:27.744Z,23.20
2022-08-05T05:17:00.467Z,23.10
2022-08-05T05:19:36.891Z,23.10
2022-08-05T05:22:24.496Z,23.00
2022-08-05T05:24:58.322Z,23.00
2022-08-05T05:34:06.183Z,22.80
2022-08-05T05:36:37.291Z,22.90
2022-08-05T05:39:05.133Z,22.90
2022-08-05T05:41:40.013Z,22.90
2022-08-05T05:44:36.848Z,23.00
2022-08-05T05:46:56.225Z,23.10
2022-08-05T05:49:26.351Z,23.10
2022-08-05T05:51:54.955Z,23.00
2022-08-05T05:54:23.040Z,22.90
2022-08-05T05:57:13.908Z,22.90
2022-08-05T05:59:48.795Z,22.90
2022-08-05T06:02:17.178Z,22.90
2022-08-05T06:05:00.482Z,22.80
2022-08-05T06:07:41.548Z,23.00
2022-08-05T06:10:10.738Z,23.10
2022-08-05T06:12:42.366Z,23.30
2022-08-05T06:15:16.195Z,23.40
2022-08-05T06:17:52.604Z,23.40
2022-08-05T06:20:21.877Z,23.50
2022-08-05T06:22:49.850Z,23.70
2022-08-05T06:25:59.717Z,23.90
2022-08-05T06:28:11.173Z,24.10
2022-08-05T06:30:41.340Z,24.20
2022-08-05T06:33:09.807Z,24.20
2022-08-05T06:36:08.323Z,24.20
2022-08-05T06:38:35.862Z,24.10
2022-08-05T06:41:07.664Z,24.00
2022-08-05T06:43:59.265Z,23.90
2022-08-05T06:46:30.123Z,23.90
2022-08-05T06:49:00.901Z,23.90
2022-08-05T06:51:30.755Z,24.00
2022-08-05T06:54:00.412Z,24.10
2022-08-05T06:56:34.104Z,24.20
2022-08-05T06:59:09.698Z,24.10
2022-08-05T07:01:40.665Z,24.10
2022-08-05T07:04:10.338Z,24.20
2022-08-05T07:06:38.042Z,24.30
2022-08-05T07:09:06.060Z,24.50
2022-08-05T07:11:37.155Z,24.60
2022-08-05T07:14:29.084Z,24.70
2022-08-05T07:18:00.304Z,24.80
2022-08-05T07:22:42.351Z,24.80
2022-08-05T07:25:22.394Z,24.80
2022-08-05T07:27:58.181Z,24.90
2022-08-05T07:30:39.207Z,25.10
2022-08-05T07:33:16.063Z,25.20
2022-08-05T07:36:02.247Z,25.00
2022-08-05T07:38:43.663Z,24.90
2022-08-05T07:42:13.074Z,24.80
2022-08-05T07:44:14.078Z,24.80
2022-08-05T07:46:48.216Z,24.80
2022-08-05T07:49:16.389Z,24.80
2022-08-05T07:51:53.625Z,24.80
2022-08-05T07:54:30.655Z,24.80
2022-08-05T07:57:17.748Z,24.90
2022-08-05T07:59:47.916Z,24.90
2022-08-05T08:02:17.932Z,25.00
2022-08-05T08:04:47.566Z,25.00
2022-08-05T08:07:23.232Z,25.10
2022-08-05T08:09:54.885Z,25.20
2022-08-05T08:12:35.429Z,25.30
2022-08-05T08:15:15.233Z,25.30
2022-08-05T08:17:52.367Z,25.30
2022-08-05T08:20:45.433Z,25.40
2022-08-05T08:23:11.541Z,25.40
2022-08-05T08:26:00.595Z,25.30
2022-08-05T08:28:36.410Z,25.50
2022-08-05T08:31:18.958Z,25.80
2022-08-05T08:33:51.649Z,26.10
2022-08-05T08:36:40.248Z,26.10
2022-08-05T08:39:15.635Z,26.20
2022-08-05T08:41:59.781Z,26.20
2022-08-05T08:45:19.601Z,26.20
2022-08-05T08:48:06.695Z,26.30
2022-08-05T08:50:32.732Z,26.10
2022-08-05T08:53:12.004Z,26.00
2022-08-05T08:56:03.440Z,26.00
2022-08-05T08:58:37.644Z,26.10
2022-08-05T09:01:16.835Z,26.10
2022-08-05T09:03:55.158Z,25.70
2022-08-05T09:06:28.079Z,24.90
2022-08-05T09:09:02.607Z,24.50
2022-08-05T09:11:52.860Z,24.20
2022-08-05T09:14:57.338Z,24.40
2022-08-05T09:17:41.265Z,24.50
2022-08-05T09:20:02.807Z,24.80
2022-08-05T09:23:19.583Z,25.10
2022-08-05T09:26:03.735Z,25.50
2022-08-05T09:28:35.283Z,25.70
2022-08-05T09:32:38.742Z,25.90
2022-08-05T09:34:04.161Z,26.00
2022-08-05T09:36:54.430Z,26.00
2022-08-05T09:39:39.563Z,25.90
2022-08-05T09:42:41.082Z,25.90
2022-08-05T09:46:05.058Z,26.00
2022-08-05T09:47:58.629Z,26.10
2022-08-05T09:50:44.791Z,25.90
2022-08-05T09:53:23.062Z,26.00
2022-08-05T09:56:04.510Z,26.20
2022-08-05T09:58:42.351Z,26.40
2022-08-05T10:01:15.699Z,26.60
2022-08-05T10:04:04.132Z,26.70
2022-08-05T10:06:58.956Z,26.90
2022-08-05T10:09:45.360Z,26.80
2022-08-05T10:12:30.147Z,26.70
2022-08-05T10:15:17.015Z,26.40
2022-08-05T10:18:19.916Z,25.80
2022-08-05T10:20:58.509Z,25.90
2022-08-05T10:23:59.824Z,25.20
2022-08-05T10:26:32.492Z,25.50
2022-08-05T10:29:02.466Z,25.40
2022-08-05T10:32:52.385Z,25.30
2022-08-05T10:34:25.870Z,25.50
2022-08-05T10:37:02.457Z,25.10
2022-08-05T10:39:59.366Z,24.70
2022-08-05T10:42:33.545Z,24.80
2022-08-05T10:45:21.568Z,24.80
2022-08-05T10:48:29.211Z,25.00
2022-08-05T10:51:03.987Z,25.40
2022-08-05T10:53:38.148Z,25.40
2022-08-05T10:56:25.515Z,25.40
2022-08-05T10:58:53.812Z,25.80
2022-08-05T11:01:55.067Z,26.30
2022-08-05T11:04:34.376Z,26.40
2022-08-05T11:07:07.052Z,26.50
2022-08-05T11:09:46.711Z,26.70
2022-08-05T11:12:27.140Z,27.70
2022-08-05T11:15:19.140Z,28.60
2022-08-05T11:17:59.587Z,28.90
2022-08-05T11:21:12.078Z,29.50
2022-08-05T11:24:04.449Z,30.00
2022-08-05T11:27:37.041Z,30.80
2022-08-05T11:30:18.970Z,32.80
2022-08-05T11:32:47.931Z,33.70
2022-08-05T11:36:02.805Z,33.80
2022-08-05T11:38:45.463Z,34.10
2022-08-05T11:41:54.779Z,35.40
2022-08-05T11:44:40.517Z,35.50
2022-08-05T11:47:11.810Z,35.60
2022-08-05T11:49:58.870Z,35.60
2022-08-05T11:52:29.472Z,35.40
2022-08-05T11:54:59.475Z,36.10
2022-08-05T11:58:08.697Z,35.90
2022-08-05T12:00:31.036Z,36.40
2022-08-05T12:03:14.755Z,35.90
2022-08-05T12:05:43.939Z,33.00
2022-08-05T12:08:12.031Z,30.20
2022-08-05T12:10:48.885Z,29.30
2022-08-05T12:13:49.027Z,28.20
2022-08-05T12:16:14.849Z,27.80
2022-08-05T12:18:52.765Z,28.00
2022-08-05T12:21:26.947Z,28.30
2022-08-05T12:24:06.906Z,28.60
2022-08-05T12:26:44.069Z,28.20
2022-08-05T12:29:23.053Z,28.00
2022-08-05T12:32:02.234Z,27.70
2022-08-05T12:34:35.654Z,27.50
2022-08-05T12:37:17.337Z,27.40
2022-08-05T12:39:48.713Z,27.60
2022-08-05T12:42:20.791Z,28.20
2022-08-05T12:44:49.264Z,30.80
2022-08-05T12:47:30.937Z,33.50
2022-08-05T12:50:03.593Z,35.60
2022-08-05T12:52:42.009Z,34.50
2022-08-05T12:55:26.180Z,32.80
2022-08-05T12:58:50.579Z,29.30
2022-08-05T13:02:04.740Z,27.60
2022-08-05T13:03:42.049Z,26.00
2022-08-05T13:06:16.868Z,25.30
2022-08-05T13:08:51.704Z,25.00
2022-08-05T13:12:01.275Z,24.60
2022-08-05T13:14:24.971Z,24.60
2022-08-05T13:17:25.044Z,24.20
2022-08-05T13:20:06.980Z,24.00
2022-08-05T13:22:38.636Z,23.70
2022-08-05T13:25:52.192Z,23.70
2022-08-05T13:28:21.245Z,23.50
2022-08-05T13:30:57.964Z,23.40
2022-08-05T13:34:23.041Z,23.30
2022-08-05T13:36:14.554Z,23.20
2022-08-05T13:38:43.195Z,23.10
2022-08-05T13:41:11.668Z,23.20
2022-08-05T13:43:45.411Z,23.50
2022-08-05T13:46:44.248Z,23.80
2022-08-05T13:49:16.499Z,24.60
2022-08-05T13:51:46.688Z,25.00
2022-08-05T13:54:16.286Z,25.80
2022-08-05T13:56:51.158Z,26.50
2022-08-05T13:59:24.366Z,27.70
2022-08-05T14:01:57.470Z,27.60
2022-08-05T14:04:54.887Z,26.70
2022-08-05T14:07:59.742Z,25.50
2022-08-05T14:10:18.708Z,24.70
2022-08-05T14:12:57.384Z,24.10
2022-08-05T14:16:06.276Z,23.70
2022-08-05T14:18:23.271Z,23.60
2022-08-05T14:20:54.405Z,23.50
2022-08-05T14:23:25.237Z,23.70
2022-08-05T14:25:58.763Z,24.00
2022-08-05T14:28:28.814Z,24.80
2022-08-05T14:30:58.906Z,24.70
2022-08-05T14:33:26.815Z,24.50
2022-08-05T14:35:54.968Z,24.50
2022-08-05T14:38:32.911Z,24.70
2022-08-05T14:41:06.119Z,24.50
2022-08-05T14:43:59.342Z,24.10
2022-08-05T14:46:28.718Z,24.00
2022-08-05T14:49:06.379Z,23.70
2022-08-05T14:51:48.790Z,23.20
2022-08-05T14:54:30.305Z,23.00
2022-08-05T14:57:05.114Z,23.30
2022-08-05T14:59:37.524Z,23.50
2022-08-05T15:02:15.885Z,23.50
2022-08-05T15:04:47.856Z,23.70
2022-08-05T15:08:06.188Z,23.50
2022-08-05T15:10:10.295Z,23.70
2022-08-05T15:13:00.222Z,23.80
2022-08-05T15:15:55.017Z,24.10
2022-08-05T15:18:18.362Z,23.80
2022-08-05T15:20:46.331Z,23.70
2022-08-05T15:23:14.500Z,23.50
2022-08-05T15:25:52.906Z,23.60
2022-08-05T15:28:27.728Z,23.50
2022-08-05T15:30:56.279Z,23.30
2022-08-05T15:34:04.300Z,23.20
2022-08-05T15:36:17.438Z,23.40
2022-08-05T15:40:41.608Z,23.60
2022-08-05T15:41:55.873Z,24.10
2022-08-05T15:44:28.134Z,24.10
2022-08-05T15:47:05.011Z,24.10
2022-08-05T15:49:41.827Z,23.80
2022-08-05T15:52:51.673Z,23.90
2022-08-05T15:55:15.467Z,24.00
2022-08-05T15:57:45.117Z,23.80
2022-08-05T16:00:16.697Z,23.60
2022-08-05T16:02:44.963Z,23.60
2022-08-05T16:05:21.494Z,23.70
2022-08-05T16:07:57.182Z,23.70
2022-08-05T16:10:25.486Z,23.70
2022-08-05T16:13:12.131Z,23.80
2022-08-05T16:16:29.920Z,23.90
2022-08-05T16:19:11.424Z,23.90
2022-08-05T16:22:10.564Z,24.30
2022-08-05T16:24:41.936Z,24.40
2022-08-05T16:27:19.401Z,24.50
2022-08-05T16:30:00.056Z,24.60
2022-08-05T16:32:29.647Z,24.40
2022-08-05T16:34:58.684Z,24.40
2022-08-05T16:38:03.148Z,24.50
2022-08-05T16:40:26.758Z,24.50
2022-08-05T16:42:57.213Z,24.70
2022-08-05T16:46:03.702Z,24.60
2022-08-05T16:48:25.313Z,24.70
2022-08-05T16:50:54.233Z,25.00
2022-08-05T16:53:32.170Z,25.00
2022-08-05T16:56:00.235Z,25.20
2022-08-05T16:58:27.952Z,25.40
2022-08-05T17:00:55.646Z,25.60
2022-08-05T17:03:23.297Z,25.80
2022-08-05T17:05:59.479Z,26.20
2022-08-05T17:08:36.057Z,26.30
2022-08-05T17:11:26.850Z,26.30
2022-08-05T17:14:06.567Z,26.60
2022-08-05T17:16:42.520Z,26.80
2022-08-05T17:19:10.872Z,26.60
2022-08-05T17:21:40.093Z,26.50
2022-08-05T17:24:30.218Z,25.90
2022-08-05T17:27:01.139Z,25.80
2022-08-05T17:29:33.931Z,26.60
2022-08-05T17:32:17.606Z,27.00
2022-08-05T17:34:48.194Z,27.30
2022-08-05T17:37:40.721Z,28.00
2022-08-05T17:40:15.166Z,29.00
2022-08-05T17:42:51.270Z,29.50
2022-08-05T17:45:22.435Z,28.90
2022-08-05T17:47:56.239Z,28.10
2022-08-05T17:50:30.334Z,28.10
2022-08-05T17:53:02.784Z,27.40
2022-08-05T17:55:37.768Z,26.40
2022-08-05T17:58:13.221Z,25.80
2022-08-05T18:00:47.465Z,25.30
2022-08-05T18:03:58.711Z,25.00
2022-08-05T18:06:11.986Z,24.80
2022-08-05T18:08:52.354Z,24.60
2022-08-05T18:11:23.976Z,24.30
2022-08-05T18:13:54.283Z,24.20
2022-08-05T18:16:23.065Z,24.10
2022-08-05T18:18:51.162Z,24.10
2022-08-05T18:21:25.899Z,24.10
2022-08-05T18:23:54.525Z,24.10
2022-08-05T18:26:27.432Z,24.10
2022-08-05T18:28:56.434Z,24.00
2022-08-05T18:31:24.523Z,24.00
2022-08-05T18:33:57.974Z,23.80
2022-08-05T18:36:31.549Z,23.70
2022-08-05T18:38:59.234Z,23.50
2022-08-05T18:41:57.640Z,23.40
2022-08-05T18:44:14.624Z,23.30
2022-08-05T18:47:12.145Z,23.20
2022-08-05T18:50:00.216Z,23.10
2022-08-05T18:52:35.995Z,23.00
2022-08-05T18:55:05.998Z,22.90
2022-08-05T18:57:50.046Z,22.80
2022-08-05T19:00:28.940Z,22.70
2022-08-05T19:03:03.718Z,22.60
2022-08-05T19:06:11.285Z,22.60
2022-08-05T19:08:22.429Z,22.50
2022-08-05T19:10:59.556Z,22.50
2022-08-05T19:13:35.568Z,22.50
2022-08-05T19:16:05.634Z,22.40
2022-08-05T19:18:53.510Z,22.40
2022-08-05T19:21:25.428Z,22.30
2022-08-05T19:24:05.272Z,22.20
2022-08-05T19:26:36.686Z,22.10
2022-08-05T19:29:26.530Z,22.10
2022-08-05T19:32:04.748Z,22.10
2022-08-05T19:34:39.718Z,22.00
2022-08-05T19:37:08.313Z,21.90
2022-08-05T19:39:45.500Z,21.90
2022-08-05T19:42:35.436Z,21.90
2022-08-05T19:45:06.027Z,21.80
2022-08-05T19:47:40.275Z,21.80
2022-08-05T19:50:11.964Z,21.70
2022-08-05T19:52:40.118Z,21.60
2022-08-05T19:56:12.610Z,21.60
2022-08-05T19:58:19.718Z,21.60
2022-08-05T20:00:47.091Z,21.60
2022-08-05T20:03:18.165Z,21.60
2022-08-05T20:05:50.268Z,21.60
2022-08-05T20:08:25.031Z,21.50
2022-08-05T20:10:55.074Z,21.50
2022-08-05T20:13:30.022Z,21.50
2022-08-05T20:16:10.435Z,21.50
2022-08-05T20:18:38.467Z,21.40
2022-08-05T20:21:07.172Z,21.40
2022-08-05T20:23:44.523Z,21.30
2022-08-05T20:26:26.462Z,21.20
2022-08-05T20:28:56.413Z,21.20
2022-08-05T20:31:37.313Z,21.10
2022-08-05T20:34:14.282Z,21.10
2022-08-05T20:36:43.262Z,21.10
2022-08-05T20:39:16.665Z,21.00
2022-08-05T20:41:47.991Z,21.10
2022-08-05T20:44:30.512Z,21.00
2022-08-05T20:47:08.419Z,20.90
2022-08-05T20:49:39.542Z,20.80
2022-08-05T20:52:08.868Z,20.80
2022-08-05T20:54:42.805Z,20.70
2022-08-05T20:57:24.748Z,20.60
2022-08-05T21:00:36.336Z,20.60
2022-08-05T21:03:06.301Z,20.60
2022-08-05T21:05:47.825Z,20.60
2022-08-05T21:08:35.984Z,20.50
2022-08-05T21:11:15.268Z,20.50
2022-08-05T21:14:01.323Z,20.50
2022-08-05T21:16:30.918Z,20.50
2022-08-05T21:19:00.309Z,20.50
2022-08-05T21:21:43.739Z,20.50
2022-08-05T21:24:19.605Z,20.40
2022-08-05T21:26:58.640Z,20.40
2022-08-05T21:29:32.117Z,20.40
2022-08-05T21:32:04.864Z,20.30
2022-08-05T21:34:33.083Z,20.30
2022-08-05T21:37:09.982Z,20.30
2022-08-05T21:39:40.476Z,20.30
2022-08-05T21:42:30.718Z,20.20
2022-08-05T21:44:57.143Z,20.20
2022-08-05T21:47:55.129Z,20.10
2022-08-05T21:50:13.634Z,20.10
2022-08-05T21:52:47.383Z,20.00
2022-08-05T21:55:15.249Z,20.00
2022-08-05T21:57:42.970Z,20.00
2022-08-05T22:00:12.087Z,19.90
2022-08-05T22:02:44.701Z,19.90
2022-08-05T22:05:13.766Z,19.80
2022-08-05T22:08:02.318Z,19.80
2022-08-05T22:10:30.067Z,19.90
2022-08-05T22:13:08.779Z,19.90
2022-08-05T22:16:02.491Z,19.90
2022-08-05T22:18:35.118Z,19.80
2022-08-05T22:21:04.697Z,19.70
2022-08-05T22:24:01.087Z,19.70
2022-08-05T22:26:50.492Z,19.70
2022-08-05T22:29:26.773Z,19.70
2022-08-05T22:31:59.604Z,19.70
2022-08-05T22:34:32.490Z,19.70
2022-08-05T22:37:00.867Z,19.70
2022-08-05T22:39:33.959Z,19.50
2022-08-05T22:42:12.186Z,19.40
2022-08-05T22:44:53.595Z,19.40
2022-08-05T22:47:29.651Z,19.50
2022-08-05T22:50:20.226Z,19.50
2022-08-05T22:52:51.420Z,19.40
2022-08-05T22:55:21.600Z,19.30
2022-08-05T22:57:52.811Z,19.20
2022-08-05T23:00:22.877Z,19.20
2022-08-05T23:02:53.146Z,19.10
2022-08-05T23:05:24.303Z,19.10
2022-08-05T23:07:52.293Z,19.00
2022-08-05T23:10:23.616Z,18.90
2022-08-05T23:12:55.041Z,18.90
2022-08-05T23:15:29.078Z,18.80
2022-08-05T23:18:00.997Z,18.70
2022-08-05T23:20:30.985Z,18.70
2022-08-05T23:22:59.067Z,18.60
2022-08-05T23:25:51.448Z,18.60
2022-08-05T23:28:15.695Z,18.50
2022-08-05T23:30:52.849Z,18.60
2022-08-05T23:33:26.300Z,18.50
2022-08-05T23:36:11.180Z,18.40
2022-08-05T23:38:42.977Z,18.30
2022-08-05T23:41:11.531Z,18.30
2022-08-05T23:44:04.698Z,18.20
2022-08-05T23:46:28.144Z,18.20
2022-08-05T23:49:00.213Z,18.10
2022-08-05T23:51:53.301Z,18.20
2022-08-05T23:54:30.452Z,18.10
2022-08-05T23:57:05.593Z,18.00
